createdAt,value
2017-11-27T00:00:56.889Z,4.97
2017-11-27T00:03:25.243Z,4.00
2017-11-27T00:05:52.876Z,4.90
2017-11-27T00:08:20.458Z,3.40
2017-11-27T00:10:48.032Z,3.87
2017-11-27T00:13:15.605Z,4.35
2017-11-27T00:15:43.900Z,4.15
2017-11-27T00:18:11.466Z,3.90
2017-11-27T00:20:39.348Z,3.60
2017-11-27T00:23:06.726Z,3.50
2017-11-27T00:25:34.303Z,4.30
2017-11-27T00:28:01.863Z,3.72
2017-11-27T00:30:29.468Z,3.72
2017-11-27T00:32:57.848Z,4.00
2017-11-27T00:35:26.157Z,3.58
2017-11-27T00:37:53.760Z,3.25
2017-11-27T00:40:21.315Z,3.53
2017-11-27T00:42:48.946Z,2.50
2017-11-27T00:45:16.519Z,3.72
2017-11-27T00:47:44.115Z,3.05
2017-11-27T00:50:11.698Z,2.92
2017-11-27T00:52:40.039Z,3.45
2017-11-27T00:55:07.659Z,3.50
2017-11-27T00:57:35.274Z,3.10
2017-11-27T01:00:02.840Z,3.42
2017-11-27T01:02:30.410Z,3.47
2017-11-27T01:04:57.952Z,2.83
2017-11-27T01:07:25.536Z,2.75
2017-11-27T01:09:53.870Z,3.40
2017-11-27T01:12:21.532Z,2.97
2017-11-27T01:14:49.134Z,3.10
2017-11-27T01:17:16.689Z,3.17
2017-11-27T01:19:44.271Z,3.20
2017-11-27T01:22:12.624Z,3.72
2017-11-27T01:24:40.204Z,3.28
2017-11-27T01:27:08.538Z,3.75
2017-11-27T01:29:36.095Z,3.58
2017-11-27T01:32:03.765Z,2.90
2017-11-27T01:34:31.327Z,2.55
2017-11-27T01:36:58.888Z,2.22
2017-11-27T01:39:26.434Z,2.58
2017-11-27T01:41:53.982Z,2.90
2017-11-27T01:44:21.547Z,2.97
2017-11-27T01:46:49.105Z,2.87
2017-11-27T01:49:16.668Z,2.80
2017-11-27T01:51:44.251Z,2.78
2017-11-27T01:54:11.804Z,3.17
2017-11-27T01:56:39.361Z,2.80
2017-11-27T01:59:06.924Z,3.67
2017-11-27T02:01:34.496Z,3.50
2017-11-27T02:04:02.070Z,4.40
2017-11-27T02:06:29.671Z,4.22
2017-11-27T02:08:57.999Z,3.70
2017-11-27T02:11:25.550Z,4.00
2017-11-27T02:13:53.111Z,3.90
2017-11-27T02:16:20.689Z,3.70
2017-11-27T02:18:48.260Z,4.70
2017-11-27T02:21:16.003Z,4.32
2017-11-27T02:23:43.572Z,3.67
2017-11-27T02:26:11.135Z,4.05
2017-11-27T02:28:38.702Z,3.87
2017-11-27T02:31:06.424Z,3.45
2017-11-27T02:33:34.800Z,4.22
2017-11-27T02:36:02.437Z,3.40
2017-11-27T02:38:29.999Z,3.60
2017-11-27T02:40:57.555Z,3.20
2017-11-27T02:43:25.119Z,3.85
2017-11-27T02:45:52.844Z,3.47
2017-11-27T02:48:20.415Z,4.15
2017-11-27T02:50:47.982Z,3.50
2017-11-27T02:53:15.546Z,3.53
2017-11-27T02:55:43.126Z,3.10
2017-11-27T02:58:11.163Z,3.00
2017-11-27T03:00:38.749Z,3.92
2017-11-27T03:03:06.278Z,3.37
2017-11-27T03:05:33.899Z,3.00
2017-11-27T03:08:01.434Z,3.75
2017-11-27T03:10:29.019Z,2.58
2017-11-27T03:12:56.594Z,2.87
2017-11-27T03:15:25.029Z,2.85
2017-11-27T03:17:52.597Z,2.65
2017-11-27T03:20:20.199Z,2.55
2017-11-27T03:22:48.536Z,2.75
2017-11-27T03:25:16.127Z,2.85
2017-11-27T03:27:43.711Z,2.65
2017-11-27T03:30:12.048Z,2.62
2017-11-27T03:32:39.888Z,2.83
2017-11-27T03:35:07.477Z,2.95
2017-11-27T03:37:35.902Z,2.50
2017-11-27T03:40:04.222Z,2.90
2017-11-27T03:42:31.797Z,2.60
2017-11-27T03:44:59.383Z,2.30
2017-11-27T03:47:26.949Z,2.25
2017-11-27T03:49:54.513Z,2.20
2017-11-27T03:52:22.049Z,2.03
2017-11-27T03:54:49.613Z,2.87
2017-11-27T03:57:17.280Z,2.10
2017-11-27T03:59:44.892Z,2.10
2017-11-27T04:02:12.428Z,2.53
2017-11-27T04:04:40.772Z,2.85
2017-11-27T04:07:08.478Z,2.30
2017-11-27T04:09:36.843Z,2.30
2017-11-27T04:12:04.415Z,1.85
2017-11-27T04:14:32.771Z,2.53
2017-11-27T04:17:00.723Z,3.03
2017-11-27T04:19:28.355Z,3.20
2017-11-27T04:21:55.909Z,2.92
2017-11-27T04:24:23.505Z,3.30
2017-11-27T04:26:51.075Z,3.35
2017-11-27T04:29:18.663Z,2.70
2017-11-27T04:31:46.259Z,3.65
2017-11-27T04:34:13.811Z,2.45
2017-11-27T04:36:41.435Z,3.50
2017-11-27T04:39:08.992Z,4.05
2017-11-27T04:41:36.671Z,4.00
2017-11-27T04:44:04.334Z,3.28
2017-11-27T04:46:31.909Z,3.65
2017-11-27T04:48:59.483Z,2.60
2017-11-27T04:51:28.203Z,3.50
2017-11-27T04:53:55.800Z,3.67
2017-11-27T04:56:23.532Z,2.40
2017-11-27T04:58:51.329Z,3.30
2017-11-27T05:01:18.891Z,3.22
2017-11-27T05:03:46.465Z,4.03
2017-11-27T05:06:14.023Z,3.67
2017-11-27T05:08:41.644Z,2.70
2017-11-27T05:11:09.250Z,2.85
2017-11-27T05:13:36.829Z,2.60
2017-11-27T05:16:04.408Z,2.62
2017-11-27T05:18:32.018Z,3.20
2017-11-27T05:20:59.625Z,3.50
2017-11-27T05:23:28.032Z,3.20
2017-11-27T05:25:55.612Z,3.25
2017-11-27T05:28:23.149Z,3.00
2017-11-27T05:30:50.807Z,3.47
2017-11-27T05:33:19.143Z,3.20
2017-11-27T05:35:46.719Z,3.45
2017-11-27T05:38:14.309Z,3.20
2017-11-27T05:40:42.639Z,3.00
2017-11-27T05:43:10.231Z,2.67
2017-11-27T05:45:37.787Z,3.22
2017-11-27T05:48:05.369Z,2.42
2017-11-27T05:50:32.899Z,3.05
2017-11-27T05:53:00.459Z,2.60
2017-11-27T05:55:28.050Z,2.90
2017-11-27T05:57:56.675Z,3.05
2017-11-27T06:00:24.331Z,4.28
2017-11-27T06:02:51.869Z,3.37
2017-11-27T06:05:20.227Z,4.03
2017-11-27T06:07:47.788Z,3.10
2017-11-27T06:10:15.565Z,4.15
2017-11-27T06:12:43.868Z,3.40
2017-11-27T06:15:11.433Z,3.70
2017-11-27T06:17:39.000Z,8.50
2017-11-27T06:20:06.584Z,4.12
2017-11-27T06:22:34.249Z,3.58
2017-11-27T06:25:01.852Z,3.50
2017-11-27T06:27:29.401Z,2.78
2017-11-27T06:29:57.070Z,2.62
2017-11-27T06:32:24.638Z,3.60
2017-11-27T06:34:52.342Z,3.25
2017-11-27T06:37:19.918Z,2.95
2017-11-27T06:39:47.475Z,3.00
2017-11-27T06:42:15.031Z,3.65
2017-11-27T06:44:42.604Z,3.50
2017-11-27T06:47:10.402Z,2.97
2017-11-27T06:49:38.750Z,2.80
2017-11-27T06:52:06.331Z,2.85
2017-11-27T06:54:33.982Z,3.35
2017-11-27T06:57:02.343Z,2.80
2017-11-27T06:59:29.917Z,3.33
2017-11-27T07:01:57.446Z,3.30
2017-11-27T07:04:25.053Z,2.70
2017-11-27T07:06:52.600Z,3.25
2017-11-27T07:09:20.614Z,3.58
2017-11-27T07:11:48.203Z,4.00
2017-11-27T07:14:15.759Z,3.97
2017-11-27T07:16:44.111Z,3.03
2017-11-27T07:19:11.673Z,3.65
2017-11-27T07:21:39.252Z,3.00
2017-11-27T07:24:07.602Z,3.75
2017-11-27T07:26:35.164Z,3.20
2017-11-27T07:29:02.728Z,3.20
2017-11-27T07:31:31.066Z,3.00
2017-11-27T07:33:58.688Z,3.70
2017-11-27T07:36:27.012Z,3.05
2017-11-27T07:39:00.267Z,3.42
2017-11-27T07:41:39.776Z,3.62
2017-11-27T07:44:08.187Z,3.53
2017-11-27T07:46:36.533Z,3.25
2017-11-27T07:49:04.106Z,4.37
2017-11-27T07:51:31.668Z,4.32
2017-11-27T07:53:59.241Z,3.83
2017-11-27T07:56:26.812Z,3.30
2017-11-27T07:58:54.364Z,3.47
2017-11-27T08:01:21.940Z,4.00
2017-11-27T08:03:50.283Z,3.55
2017-11-27T08:06:17.874Z,3.50
2017-11-27T08:08:45.425Z,3.53
2017-11-27T08:11:13.000Z,3.17
2017-11-27T08:13:41.336Z,3.80
2017-11-27T08:16:08.902Z,3.28
2017-11-27T08:18:36.518Z,3.20
2017-11-27T08:21:04.899Z,3.10
2017-11-27T08:23:32.493Z,3.70
2017-11-27T08:26:00.216Z,2.90
2017-11-27T08:28:28.571Z,3.53
2017-11-27T08:30:56.134Z,3.40
2017-11-27T08:33:23.772Z,3.80
2017-11-27T08:35:51.316Z,3.35
2017-11-27T08:38:18.879Z,4.12
2017-11-27T08:40:46.461Z,3.42
2017-11-27T08:43:14.040Z,3.15
2017-11-27T08:45:41.739Z,3.35
2017-11-27T08:48:10.107Z,3.00
2017-11-27T08:50:37.837Z,3.30
2017-11-27T08:53:05.382Z,2.78
2017-11-27T08:55:44.508Z,2.95
2017-11-27T08:58:12.340Z,2.40
2017-11-27T09:00:40.654Z,2.50
2017-11-27T09:03:08.203Z,3.15
2017-11-27T09:05:35.768Z,3.45
2017-11-27T09:08:03.347Z,2.90
2017-11-27T09:10:41.977Z,2.70
2017-11-27T09:13:09.527Z,2.80
2017-11-27T09:15:37.105Z,3.10
2017-11-27T09:18:04.727Z,3.15
2017-11-27T09:20:32.278Z,2.67
2017-11-27T09:22:59.874Z,3.12
2017-11-27T09:25:27.417Z,2.85
2017-11-27T09:27:54.971Z,3.00
2017-11-27T09:30:22.539Z,2.28
2017-11-27T09:32:50.104Z,2.65
2017-11-27T09:35:17.672Z,2.78
2017-11-27T09:37:45.217Z,2.90
2017-11-27T09:40:12.791Z,2.65
2017-11-27T09:42:40.323Z,2.75
2017-11-27T09:45:08.001Z,2.78
2017-11-27T09:47:36.113Z,2.40
2017-11-27T09:50:03.656Z,2.70
2017-11-27T09:52:31.221Z,3.25
2017-11-27T09:54:58.773Z,2.15
2017-11-27T09:57:26.344Z,2.00
2017-11-27T09:59:53.956Z,2.10
2017-11-27T10:02:22.061Z,1.95
2017-11-27T10:04:49.643Z,2.03
2017-11-27T10:07:17.223Z,1.77
2017-11-27T10:09:44.791Z,2.10
2017-11-27T10:12:13.111Z,1.92
2017-11-27T10:14:40.694Z,1.60
2017-11-27T10:17:08.265Z,1.95
2017-11-27T10:19:35.844Z,1.80
2017-11-27T10:22:03.396Z,1.58
2017-11-27T10:24:31.007Z,1.80
2017-11-27T10:26:58.567Z,1.40
2017-11-27T10:29:26.221Z,1.30
2017-11-27T10:31:54.551Z,1.35
2017-11-27T10:34:22.268Z,1.80
2017-11-27T10:36:50.217Z,1.10
2017-11-27T10:39:17.797Z,1.98
2017-11-27T10:41:46.123Z,1.73
2017-11-27T10:44:13.714Z,2.25
2017-11-27T10:46:41.295Z,1.77
2017-11-27T10:49:09.625Z,1.73
2017-11-27T10:51:37.185Z,1.48
2017-11-27T10:54:04.756Z,1.40
2017-11-27T10:56:32.345Z,1.45
2017-11-27T10:58:59.899Z,1.70
2017-11-27T11:01:27.461Z,1.40
2017-11-27T11:03:55.159Z,1.60
2017-11-27T11:06:22.702Z,1.67
2017-11-27T11:08:51.131Z,1.70
2017-11-27T11:11:18.772Z,1.00
2017-11-27T11:13:46.416Z,1.33
2017-11-27T11:16:14.725Z,1.17
2017-11-27T11:18:42.298Z,1.15
2017-11-27T11:21:10.068Z,1.30
2017-11-27T11:23:37.634Z,1.50
2017-11-27T11:26:05.196Z,1.00
2017-11-27T11:28:32.774Z,1.05
2017-11-27T11:31:00.347Z,1.15
2017-11-27T11:33:27.908Z,1.58
2017-11-27T11:35:55.484Z,1.40
2017-11-27T11:38:23.057Z,1.17
2017-11-27T11:40:51.406Z,1.60
2017-11-27T11:43:18.974Z,1.90
2017-11-27T11:45:46.667Z,1.48
2017-11-27T11:48:15.009Z,2.03
2017-11-27T11:50:42.552Z,1.33
2017-11-27T11:53:10.219Z,2.10
2017-11-27T11:55:37.758Z,1.95
2017-11-27T11:58:05.352Z,1.60
2017-11-27T12:00:32.931Z,1.42
2017-11-27T12:03:00.503Z,1.20
2017-11-27T12:05:28.823Z,1.35
2017-11-27T12:07:56.408Z,0.80
2017-11-27T12:10:23.954Z,1.08
2017-11-27T12:12:51.517Z,0.80
2017-11-27T12:15:19.099Z,1.00
2017-11-27T12:17:46.655Z,1.10
2017-11-27T12:20:14.228Z,0.90
2017-11-27T12:22:41.781Z,1.20
2017-11-27T12:25:09.349Z,0.80
2017-11-27T12:27:36.880Z,0.95
2017-11-27T12:30:04.448Z,0.90
2017-11-27T12:32:32.009Z,1.08
2017-11-27T12:34:59.566Z,0.90
2017-11-27T12:37:27.252Z,1.10
2017-11-27T12:39:54.817Z,0.90
2017-11-27T12:42:22.395Z,1.08
2017-11-27T12:44:49.956Z,1.10
2017-11-27T12:47:17.537Z,0.90
2017-11-27T12:49:45.879Z,0.90
2017-11-27T12:52:13.532Z,0.90
2017-11-27T12:54:41.107Z,1.75
2017-11-27T12:57:08.652Z,1.20
2017-11-27T12:59:36.199Z,1.67
2017-11-27T13:02:03.772Z,1.30
2017-11-27T13:04:31.328Z,1.80
2017-11-27T13:06:58.886Z,1.55
2017-11-27T13:09:26.496Z,1.73
2017-11-27T13:11:54.095Z,1.23
2017-11-27T13:14:22.534Z,1.75
2017-11-27T13:16:50.168Z,1.30
2017-11-27T13:19:17.916Z,0.93
2017-11-27T13:21:45.514Z,1.05
2017-11-27T13:24:13.063Z,1.17
2017-11-27T13:26:40.644Z,1.20
2017-11-27T13:29:08.190Z,1.23
2017-11-27T13:31:35.790Z,1.35
2017-11-27T13:34:04.166Z,1.33
2017-11-27T13:36:31.748Z,1.00
2017-11-27T13:38:59.312Z,1.15
2017-11-27T13:41:26.873Z,0.90
2017-11-27T13:43:54.471Z,1.10
2017-11-27T13:46:22.015Z,0.88
2017-11-27T13:48:49.602Z,0.90
2017-11-27T13:51:17.179Z,1.00
2017-11-27T13:53:44.850Z,0.80
2017-11-27T13:56:12.423Z,1.10
2017-11-27T13:58:40.766Z,1.20
2017-11-27T14:01:08.319Z,0.95
2017-11-27T14:03:36.158Z,0.95
2017-11-27T14:06:03.717Z,1.10
2017-11-27T14:08:31.259Z,1.25
2017-11-27T14:10:59.926Z,1.55
2017-11-27T14:13:28.390Z,1.35
2017-11-27T14:15:55.936Z,1.33
2017-11-27T14:18:23.672Z,1.40
2017-11-27T14:20:51.263Z,1.10
2017-11-27T14:23:18.851Z,1.00
2017-11-27T14:25:46.420Z,0.70
2017-11-27T14:28:13.976Z,1.48
2017-11-27T14:30:41.630Z,0.90
2017-11-27T14:33:09.315Z,0.90
2017-11-27T14:35:36.894Z,2.10
2017-11-27T14:38:05.197Z,2.45
2017-11-27T14:40:32.768Z,2.80
2017-11-27T14:43:00.397Z,3.15
2017-11-27T14:45:28.749Z,3.35
2017-11-27T14:47:56.479Z,2.90
2017-11-27T14:50:24.191Z,2.33
2017-11-27T14:52:52.272Z,2.62
2017-11-27T14:55:19.837Z,2.53
2017-11-27T14:57:47.766Z,3.00
2017-11-27T15:00:15.329Z,2.50
2017-11-27T15:02:42.902Z,2.03
2017-11-27T15:05:11.213Z,1.85
2017-11-27T15:07:38.881Z,2.85
2017-11-27T15:10:06.488Z,2.42
2017-11-27T15:12:34.165Z,2.90
2017-11-27T15:15:02.794Z,2.67
2017-11-27T15:17:31.242Z,3.97
2017-11-27T15:19:58.937Z,2.45
2017-11-27T15:22:27.647Z,2.47
2017-11-27T15:24:55.243Z,1.80
2017-11-27T15:27:22.810Z,1.85
2017-11-27T15:29:50.414Z,2.10
2017-11-27T15:32:18.748Z,2.10
2017-11-27T15:34:46.527Z,1.80
2017-11-27T15:37:14.228Z,2.47
2017-11-27T15:39:42.635Z,2.30
2017-11-27T15:42:10.192Z,1.87
2017-11-27T15:44:37.838Z,2.10
2017-11-27T15:47:06.266Z,2.50
2017-11-27T15:49:33.973Z,1.80
2017-11-27T15:52:01.666Z,2.85
2017-11-27T15:54:29.224Z,2.15
2017-11-27T15:57:06.741Z,2.80
2017-11-27T15:59:34.417Z,2.75
2017-11-27T16:02:01.995Z,2.80
2017-11-27T16:04:29.633Z,2.15
2017-11-27T16:06:57.214Z,2.17
2017-11-27T16:09:24.768Z,1.40
2017-11-27T16:11:52.329Z,1.67
2017-11-27T16:14:19.883Z,1.62
2017-11-27T16:16:47.444Z,1.27
2017-11-27T16:19:15.025Z,1.10
2017-11-27T16:21:42.568Z,1.35
2017-11-27T16:24:10.259Z,1.25
2017-11-27T16:26:37.811Z,1.27
2017-11-27T16:29:05.436Z,2.03
2017-11-27T16:31:33.009Z,1.70
2017-11-27T16:34:00.673Z,2.00
2017-11-27T16:36:28.214Z,2.55
2017-11-27T16:38:55.839Z,1.75
2017-11-27T16:41:23.512Z,1.80
2017-11-27T16:43:51.923Z,2.05
2017-11-27T16:46:19.494Z,1.35
2017-11-27T16:48:47.046Z,1.35
2017-11-27T16:51:14.617Z,1.50
2017-11-27T16:53:44.337Z,1.10
2017-11-27T16:56:11.951Z,1.42
2017-11-27T16:58:39.574Z,1.10
2017-11-27T17:01:07.119Z,1.42
2017-11-27T17:03:34.807Z,1.10
2017-11-27T17:06:02.487Z,1.65
2017-11-27T17:08:30.165Z,1.30
2017-11-27T17:10:57.771Z,1.60
2017-11-27T17:13:25.373Z,1.30
2017-11-27T17:15:53.049Z,1.50
2017-11-27T17:18:20.613Z,1.30
2017-11-27T17:20:48.261Z,1.40
2017-11-27T17:23:15.837Z,1.40
2017-11-27T17:25:43.387Z,1.30
2017-11-27T17:28:10.968Z,1.40
2017-11-27T17:30:38.558Z,1.50
2017-11-27T17:33:17.534Z,1.48
2017-11-27T17:35:46.567Z,1.70
2017-11-27T17:38:14.484Z,1.90
2017-11-27T17:40:42.102Z,1.90
2017-11-27T17:43:09.662Z,2.12
2017-11-27T17:45:37.597Z,1.87
2017-11-27T17:48:05.934Z,2.00
2017-11-27T17:50:33.510Z,1.80
2017-11-27T17:53:01.137Z,1.95
2017-11-27T17:55:28.739Z,2.00
2017-11-27T17:57:56.315Z,2.40
2017-11-27T18:00:23.879Z,2.05
2017-11-27T18:02:51.616Z,2.35
2017-11-27T18:05:19.162Z,2.60
2017-11-27T18:07:46.876Z,3.25
2017-11-27T18:10:14.430Z,2.62
2017-11-27T18:12:41.988Z,3.65
2017-11-27T18:15:09.606Z,2.20
2017-11-27T18:17:37.163Z,2.60
2017-11-27T18:20:04.729Z,2.25
2017-11-27T18:22:32.335Z,2.12
2017-11-27T18:24:59.964Z,1.87
2017-11-27T18:27:27.527Z,2.78
2017-11-27T18:29:55.076Z,1.55
2017-11-27T18:32:22.659Z,2.53
2017-11-27T18:34:50.330Z,2.80
2017-11-27T18:37:17.885Z,2.50
2017-11-27T18:39:45.447Z,2.37
2017-11-27T18:42:13.011Z,2.12
2017-11-27T18:44:40.567Z,2.10
2017-11-27T18:47:08.186Z,1.40
2017-11-27T18:49:36.524Z,1.70
2017-11-27T18:52:04.113Z,1.80
2017-11-27T18:54:32.493Z,2.42
2017-11-27T18:57:00.852Z,4.00
2017-11-27T18:59:28.424Z,4.15
2017-11-27T19:01:56.039Z,4.00
2017-11-27T19:04:23.602Z,2.90
2017-11-27T19:06:51.183Z,3.85
2017-11-27T19:09:18.772Z,2.90
2017-11-27T19:11:47.254Z,3.08
2017-11-27T19:14:14.806Z,1.60
2017-11-27T19:16:42.710Z,1.73
2017-11-27T19:19:10.721Z,1.85
2017-11-27T19:21:38.276Z,1.98
2017-11-27T19:24:06.172Z,2.78
2017-11-27T19:26:33.867Z,3.15
2017-11-27T19:29:02.193Z,3.55
2017-11-27T19:31:30.725Z,2.55
2017-11-27T19:34:00.092Z,2.60
2017-11-27T19:36:27.716Z,3.35
2017-11-27T19:39:11.682Z,3.30
2017-11-27T19:41:39.524Z,3.28
2017-11-27T19:44:07.872Z,2.97
2017-11-27T19:46:47.511Z,3.55
2017-11-27T19:49:15.186Z,2.85
2017-11-27T19:51:42.767Z,2.25
2017-11-27T19:54:11.187Z,1.40
2017-11-27T19:56:49.923Z,1.20
2017-11-27T19:59:18.688Z,1.25
2017-11-27T20:01:46.369Z,1.27
2017-11-27T20:04:13.952Z,1.20
2017-11-27T20:06:41.555Z,1.30
2017-11-27T20:09:09.903Z,1.37
2017-11-27T20:11:37.492Z,1.55
2017-11-27T20:14:05.836Z,1.20
2017-11-27T20:16:33.436Z,1.67
2017-11-27T20:19:01.852Z,1.00
2017-11-27T20:21:29.515Z,1.20
2017-11-27T20:23:57.093Z,1.80
2017-11-27T20:26:24.661Z,1.60
2017-11-27T20:28:53.066Z,1.75
2017-11-27T20:31:20.655Z,2.05
2017-11-27T20:33:51.035Z,1.77
2017-11-27T20:36:18.618Z,1.35
2017-11-27T20:38:46.455Z,2.20
2017-11-27T20:41:26.046Z,1.60
2017-11-27T20:43:53.664Z,1.67
2017-11-27T20:46:21.513Z,1.48
2017-11-27T20:48:49.207Z,2.50
2017-11-27T20:51:18.554Z,1.62
2017-11-27T20:53:47.111Z,2.07
2017-11-27T20:56:15.482Z,1.50
2017-11-27T20:58:43.056Z,2.50
2017-11-27T21:01:11.439Z,1.87
2017-11-27T21:03:39.788Z,2.25
2017-11-27T21:06:07.403Z,2.05
2017-11-27T21:08:34.981Z,1.73
2017-11-27T21:11:03.425Z,1.52
2017-11-27T21:13:31.797Z,1.45
2017-11-27T21:16:00.129Z,1.50
2017-11-27T21:18:27.701Z,1.55
2017-11-27T21:20:55.248Z,1.85
2017-11-27T21:23:22.834Z,1.70
2017-11-27T21:25:50.435Z,1.58
2017-11-27T21:28:19.482Z,1.65
2017-11-27T21:30:47.104Z,2.00
2017-11-27T21:33:14.684Z,1.55
2017-11-27T21:35:52.222Z,1.58
2017-11-27T21:38:19.824Z,1.50
2017-11-27T21:40:49.069Z,1.48
2017-11-27T21:43:16.658Z,1.80
2017-11-27T21:45:44.245Z,1.58
2017-11-27T21:48:12.578Z,1.75
2017-11-27T21:50:40.232Z,1.37
2017-11-27T21:53:07.816Z,1.60
2017-11-27T21:55:36.178Z,1.17
2017-11-27T21:58:03.752Z,1.50
2017-11-27T22:00:31.379Z,1.17
2017-11-27T22:02:58.960Z,0.90
2017-11-27T22:05:26.511Z,1.00
2017-11-27T22:07:54.104Z,1.35
2017-11-27T22:10:22.484Z,1.00
2017-11-27T22:12:50.082Z,1.10
2017-11-27T22:15:18.412Z,1.10
2017-11-27T22:17:46.115Z,1.05
2017-11-27T22:20:14.584Z,1.10
2017-11-27T22:22:42.169Z,1.50
2017-11-27T22:25:10.516Z,1.08
2017-11-27T22:27:38.095Z,1.35
2017-11-27T22:30:06.545Z,1.20
2017-11-27T22:32:34.091Z,1.33
2017-11-27T22:35:11.588Z,1.40
2017-11-27T22:37:39.172Z,1.40
2017-11-27T22:40:06.750Z,1.45
2017-11-27T22:42:34.408Z,1.50
2017-11-27T22:45:02.069Z,1.58
2017-11-27T22:47:29.680Z,1.77
2017-11-27T22:49:57.259Z,1.90
2017-11-27T22:52:24.820Z,1.73
2017-11-27T22:54:52.381Z,1.65
2017-11-27T22:57:19.943Z,2.33
2017-11-27T22:59:47.710Z,1.80
2017-11-27T23:02:15.278Z,2.10
2017-11-27T23:04:42.969Z,1.40
2017-11-27T23:07:10.529Z,1.90
2017-11-27T23:09:38.062Z,1.67
2017-11-27T23:12:05.624Z,1.30
2017-11-27T23:14:33.306Z,1.70
2017-11-27T23:17:00.866Z,1.48
2017-11-27T23:19:28.421Z,1.52
2017-11-27T23:21:55.964Z,1.60
2017-11-27T23:24:23.536Z,1.45
2017-11-27T23:26:51.087Z,1.35
2017-11-27T23:29:18.639Z,1.37
2017-11-27T23:31:46.219Z,1.60
2017-11-27T23:34:13.885Z,2.17
2017-11-27T23:36:41.518Z,2.05
2017-11-27T23:39:10.770Z,1.60
2017-11-27T23:41:38.349Z,1.90
2017-11-27T23:44:05.909Z,2.60
2017-11-27T23:46:34.247Z,1.83
2017-11-27T23:49:01.814Z,1.92
2017-11-27T23:51:29.363Z,2.17
2017-11-27T23:53:56.924Z,2.30
2017-11-27T23:56:24.552Z,1.90
2017-11-27T23:58:52.123Z,2.45
